Chen, Xiao-Qun
ChinaWomanBorn 19672015 – 2026Runner id 729653
Events
40
34 race dates
Best pace
10.218
km/h · 2017
Best finish
28th
of 278 · 2019
Distance raced
4,304
km · splits not double-counted
Pace over time
km/h · higher is faster
Pace over time: 34 races and 6 splits from 2015 to 2026, ranging from 2.44 to 12.36 kilometres per hour, where higher is faster. A second, age-graded series is drawn above it; the gap between the two is the age credit.
- Actual pace
- Age-graded pace
- Split of a race already plotted
Results
| Date | Event | Distance | Result | Pace km/h | Placing |
|---|---|---|---|---|---|
| 2015-07-18 | 100km | 25:47:03 h | 3.878 | 145/194 | |
| 2015-08-22 | 100km | 22:46:25 h | 4.391 | 53/61 | |
| 2015-11-28 | 110km | 19:16:48 h | 5.705 | 126/174 | |
| 2016-01-23 | Hong Kong 100 Ultra Trail RaceHong Kong | 100km | 25:18:28 h | 3.951 | 949/973 |
| 2016-03-12 | 100km | 22:52:27 h | 4.372 | 123/225 | |
| 2016-04-23 | 100km | 23:40:54 h | 4.223 | 114/180 | |
| 2016-06-18 | 24h | 58.650 km | 2.444 | 89/91 | |
| 2016-10-29 | 24h | 169.728 km | 7.072 | 18/44 | |
| 2016-11-13 | Nature Run - XiangxiChina | 50km | 7:27:27 h | 6.705 | 57/93 |
| 2017-10-21 | 24h | 168.800 km | 7.033 | 22/52 | |
| 2017-12-09 | 24h | 182.502 km | 7.604 | 25/70 | |
| 2017-12-09 | Hangzhou ultramarathon 24H race - 12h SplitChinaIAU BronzeSplit of a longer race in this career; not counted again in the distance total | 12h | 106.237 km | 8.853 | 38/70 |
| 2017-12-09 | Hangzhou ultramarathon 24H race - 6h SplitChinaIAU BronzeSplit of a longer race in this career; not counted again in the distance total | 6h | 59.835 km | 9.973 | 44/70 |
| 2017-12-09 | Hangzhou ultramarathon 24H race - 100mi SplitChinaIAU BronzeSplit of a longer race in this career; not counted again in the distance total | 100mi | 20:58:26 h | 7.673 | 27/38 |
| 2017-12-09 | Hangzhou ultramarathon 24H race - 100km SplitChinaIAU BronzeSplit of a longer race in this career; not counted again in the distance total | 100km | 11:12:41 h | 8.920 | 37/63 |
| 2017-12-09 | Hangzhou ultramarathon 24H race - 50mi SplitChinaIAU BronzeSplit of a longer race in this career; not counted again in the distance total | 50mi | 8:26:00 h | 9.542 | 37/65 |
| 2017-12-09 | Hangzhou ultramarathon 24H race - 50km SplitChinaIAU BronzeSplit of a longer race in this career; not counted again in the distance total | 50km | 4:53:36 h | 10.218 | 44/70 |
| 2018-03-17 | 12h | 101.250 km | 8.438 | 44/113 | |
| 2018-05-06 | Nature Run - XupuChina | 53km | 9:30:44 h | 5.572 | 48/172 |
| 2018-05-20 | 100km | 14:47:39 h | 6.759 | 88/205 | |
| 2018-07-21 | 51.6km | 8:09:50 h | 6.321 | 19/82 | |
| 2018-10-27 | 50km | 7:09:20 h | 6.988 | 52/121 | |
| 2018-11-10 | 50km | 6:53:44 h | 7.251 | 36/152 | |
| 2018-11-24 | 103km | 16:32:09 h | 6.229 | 57/145 | |
| 2019-05-18 | 100km | 16:28:23 h | 6.071 | 15/94 | |
| 2019-06-01 | 106km | 19:53:37 h | 5.328 | 28/278 | |
| 2019-08-03 | Super Salmon 100China | 103km | 19:38:18 h | 5.245 | 27/76 |
| 2019-09-01 | 50km | 5:05:24 h | 9.823 | 57/191 | |
| 2019-10-12 | 102.8km | 17:14:00 h | 5.965 | 38/106 | |
| 2019-10-19 | 155.4km | 18:59:04 h | 8.186 | 26/61 | |
| 2019-11-30 | 6d | 660.000 km | 4.583 | 4/33 | |
| 2020-08-28 | 100km | 17:49:37 h | 5.609 | 21/97 | |
| 2020-09-19 | 100km | 17:46:06 h | 5.628 | 34/164 | |
| 2021-05-22 | 100km | 20:53:08 h | 4.788 | 40/122 | |
| 2022-07-22 | 103km | 22:22:19 h | 4.604 | 108/588 | |
| 2022-11-26 | 50km | 7:28:42 h | 6.686 | 35/97 | |
| 2023-12-03 | 6d | 554.000 km | 3.847 | 9/14 | |
| 2024-10-20 | 50km | 5:56:18 h | 8.420 | 43/289 | |
| 2025-09-27 | Chiangmai 24 Hr ChallengeThailand | 24h | 102.448 km | 4.269 | 46/76 |
| 2026-03-14 | 12h | 118.503 km | 9.875 | 13/39 |